Norwegian Jewel — C6TX6 — position and weather

sailwx.info

Track history (hours):
 
Tides and Currents Weather Stations Pressure Air Temp Water Temp Dewpoint Dewpoint Depression Visibility Wind Speed Wind Dir Waves Ship Positions

Norwegian Jewel

Last reported at 2017-Sep-25 10:00 UTC. Time now 2017-Sep-25 10:07 UTC.
Position N 54°23' W 131°09'.

Type: Ship. MMSI: 311827000.

Date/timePositionNaut miles runAvg speedWind from/ knotsBaromVisibWave heightAir tempDewpointWater temp
2017-Sep-25 10:00N 54°23' W 131°09'918.7
2017-Sep-25 09:30N 54°14' W 131°03'1020.2
2017-Sep-25 09:00N 54°04' W 131°00'1121.3
2017-Sep-25 08:30N 53°53' W 130°58'1121.3
2017-Sep-25 08:00N 53°43' W 130°56'1121.5
2017-Sep-25 07:30N 53°32' W 130°56'1121.0
2017-Sep-25 07:00N 53°22' W 130°57'12620.5
2017-Sep-25 00:53N 51°27' W 129°30'820.6
2017-Sep-25 00:31N 51°23' W 129°20'1020.7
2017-Sep-25 00:00N 51°18' W 129°06'1020.8
2017-Sep-24 23:30N 51°12' W 128°52'1020.3
2017-Sep-24 23:01N 51°10' W 128°36'1019.8
2017-Sep-24 22:31N 51°07' W 128°21'1019.6
2017-Sep-24 22:00N 51°04' W 128°06'1019.7
2017-Sep-24 21:30N 51°01' W 127°51'714.6
2017-Sep-24 21:01N 50°56' W 127°42'1020.1
2017-Sep-24 20:30N 50°50' W 127°29'1020.4
2017-Sep-24 20:00N 50°46' W 127°14'1020.7
2017-Sep-24 19:30N 50°43' W 126°59'1019.9
2017-Sep-24 18:59N 50°37' W 126°45'3919.3
2017-Sep-24 16:56N 50°23' W 125°47'1021.4
2017-Sep-24 16:29N 50°22' W 125°32'714.8
2017-Sep-24 16:00N 50°17' W 125°24'918.2
2017-Sep-24 15:31N 50°08' W 125°21'713.9
2017-Sep-24 15:00N 50°03' W 125°14'713.5
2017-Sep-24 14:30N 49°57' W 125°08'816.6
2017-Sep-24 14:00N 49°51' W 124°59'816.2
2017-Sep-24 13:30N 49°46' W 124°50'714.9
2017-Sep-24 13:01N 49°40' W 124°42'815.0
2017-Sep-24 12:30N 49°35' W 124°34'715.0
2017-Sep-24 12:00N 49°30' W 124°25'815.7
2017-Sep-24 11:31N 49°25' W 124°16'815.4
2017-Sep-24 11:00N 49°21' W 124°05'816.0
2017-Sep-24 10:30N 49°18' W 123°54'816.5
2017-Sep-24 10:00N 49°14' W 123°43'816.9
2017-Sep-24 09:31N 49°10' W 123°32'816.7
2017-Sep-24 09:00N 49°05' W 123°22'816.3
2017-Sep-24 08:30N 48°59' W 123°13'816.3
2017-Sep-24 08:00N 48°53' W 123°04'713.5
2017-Sep-24 07:30N 48°47' W 123°01'713.9
2017-Sep-24 07:00N 48°43' W 123°10'611.4
2017-Sep-24 06:30N 48°38' W 123°14'510.4
2017-Sep-24 06:00N 48°33' W 123°12'510.2
2017-Sep-24 05:30N 48°28' W 123°10'510.2
2017-Sep-24 05:01N 48°23' W 123°13'714.0
2017-Sep-24 04:30N 48°21' W 123°23'815.5
2017-Sep-24 04:00N 48°14' W 123°26'713.2
2017-Sep-24 03:30N 48°08' W 123°21'917.2
2017-Sep-24 03:00N 48°12' W 123°09'816.4
2017-Sep-24 02:30N 48°12' W 122°57'816.0
2017-Sep-24 02:00N 48°10' W 122°45'714.3
2017-Sep-24 01:30N 48°05' W 122°38'715.3
2017-Sep-24 01:00N 47°58' W 122°34'715.0
2017-Sep-24 00:31N 47°51' W 122°28'815.8
2017-Sep-24 00:01N 47°44' W 122°26'713.4
2017-Sep-23 23:31N 47°37' W 122°24'2 4.1
2017-Sep-23 23:00N 47°37' W 122°21'0 0.0
2017-Sep-23 22:27N 47°37' W 122°21'0 0.0
2017-Sep-23 22:00N 47°37' W 122°21'0 0.0
2017-Sep-23 21:29N 47°37' W 122°21'0 0.0
2017-Sep-23 21:00N 47°37' W 122°21'0 0.0
2017-Sep-23 20:29N 47°37' W 122°21'0 0.0
2017-Sep-23 19:58N 47°37' W 122°21'406 9.7
2017-Sep-22 02:00N 51°36' W 130°46'1123.0
2017-Sep-22 01:30N 51°44' W 130°59'1121.9
2017-Sep-22 01:00N 51°52' W 131°11'1223.7
2017-Sep-22 00:31N 52°02' W 131°23'1223.1
2017-Sep-22 00:00N 52°11' W 131°35'  
2017-Sep-18 11:13N 54°41' W 131°15'1418.8
2017-Sep-18 10:27N 54°26' W 131°12'921.3
2017-Sep-18 10:00N 54°18' W 131°04'1020.7
2017-Sep-18 09:30N 54°08' W 131°01'1020.6
2017-Sep-18 09:00N 53°58' W 130°58'1020.7
2017-Sep-18 08:30N 53°47' W 130°58'1020.7
2017-Sep-18 08:01N 53°37' W 130°57'14921.0
2017-Sep-18 00:56N 51°21' W 129°18'921.9
2017-Sep-18 00:30N 51°16' W 129°05'1122.0
2017-Sep-18 00:01N 51°12' W 128°49'1122.5
2017-Sep-17 23:30N 51°09' W 128°32'1122.3
2017-Sep-17 23:00N 51°05' W 128°15'1222.0
2017-Sep-17 22:29N 51°02' W 127°57'817.3
2017-Sep-17 22:00N 50°58' W 127°45'917.8
2017-Sep-17 21:30N 50°52' W 127°35'1020.6
2017-Sep-17 21:00N 50°48' W 127°20'1020.4
2017-Sep-17 20:30N 50°44' W 127°05'1019.2
2017-Sep-17 19:59N 50°40' W 126°51'5717.9
2017-Sep-17 16:49N 50°20' W 125°27'413.9
2017-Sep-17 16:30N 50°17' W 125°24'917.4
2017-Sep-17 16:00N 50°08' W 125°21'713.8
2017-Sep-17 15:30N 50°03' W 125°14'713.3
2017-Sep-17 15:00N 49°57' W 125°08'714.0
2017-Sep-17 14:30N 49°52' W 125°01'714.2
2017-Sep-17 14:00N 49°47' W 124°53'815.0
2017-Sep-17 13:31N 49°42' W 124°45'714.7
2017-Sep-17 13:00N 49°37' W 124°37'714.5
2017-Sep-17 12:30N 49°31' W 124°30'714.1
2017-Sep-17 12:00N 49°27' W 124°22'815.2
2017-Sep-17 11:30N 49°23' W 124°11'815.4
2017-Sep-17 11:00N 49°20' W 124°01'815.6
2017-Sep-17 10:30N 49°16' W 123°50'815.7
2017-Sep-17 10:00N 49°12' W 123°40'815.8
2017-Sep-17 09:30N 49°08' W 123°30'815.1
2017-Sep-17 09:00N 49°03' W 123°20'816.5
2017-Sep-17 08:30N 48°58' W 123°10'815.9
2017-Sep-17 08:01N 48°52' W 123°02'612.9
2017-Sep-17 07:30N 48°46' W 123°03'816.1
2017-Sep-17 07:00N 48°42' W 123°14'611.7
2017-Sep-17 06:30N 48°36' W 123°13'510.3
2017-Sep-17 06:00N 48°31' W 123°11'510.3
2017-Sep-17 05:30N 48°26' W 123°10'612.1
2017-Sep-17 05:00N 48°22' W 123°17'612.3
2017-Sep-17 04:30N 48°19' W 123°25'713.2
2017-Sep-17 04:00N 48°13' W 123°25'5 9.9
2017-Sep-17 03:30N 48°10' W 123°20'713.9
2017-Sep-17 03:01N 48°12' W 123°10'713.5
2017-Sep-17 02:29N 48°12' W 122°59'713.4
2017-Sep-17 02:00N 48°11' W 122°50'714.0
2017-Sep-17 01:30N 48°08' W 122°41'714.9
2017-Sep-17 01:00N 48°01' W 122°36'815.6
2017-Sep-17 00:30N 47°54' W 122°30'815.2
2017-Sep-17 00:00N 47°47' W 122°26'715.0
2017-Sep-16 23:30N 47°40' W 122°28'510.9
2017-Sep-16 23:00N 47°37' W 122°21'0 0.5
2017-Sep-16 22:30N 47°37' W 122°21'0 0.0
2017-Sep-16 22:00N 47°37' W 122°21'0 0.0
2017-Sep-16 21:30N 47°37' W 122°21'0 0.0
2017-Sep-16 21:00N 47°37' W 122°21'0 0.0
2017-Sep-16 20:30N 47°37' W 122°21'0 0.0
2017-Sep-16 20:00N 47°37' W 122°21'0 0.0
2017-Sep-16 19:30N 47°37' W 122°21'0 0.0
2017-Sep-16 18:59N 47°37' W 122°21'0 0.0
2017-Sep-16 18:29N 47°37' W 122°21'0 0.0
2017-Sep-16 17:56N 47°37' W 122°21'0 0.0
2017-Sep-16 17:29N 47°37' W 122°21'0 0.0
2017-Sep-16 16:58N 47°37' W 122°21'0 0.0
2017-Sep-16 16:29N 47°37' W 122°21'0 0.0
2017-Sep-16 15:59N 47°37' W 122°21'0 0.0
2017-Sep-16 15:30N 47°37' W 122°21'0 0.0
2017-Sep-16 15:00N 47°37' W 122°21'0 0.0
2017-Sep-16 14:30N 47°37' W 122°21'0 0.0
2017-Sep-16 14:00N 47°37' W 122°21'0 0.0
2017-Sep-16 13:30N 47°37' W 122°21'1 1.7
2017-Sep-16 13:00N 47°36' W 122°22'510.5
2017-Sep-16 12:30N 47°39' W 122°28'5 9.9
2017-Sep-16 12:00N 47°44' W 122°27'4 8.2
2017-Sep-16 11:30N 47°48' W 122°28'4 8.7
2017-Sep-16 11:00N 47°53' W 122°29'4 8.5
2017-Sep-16 10:30N 47°56' W 122°33'4 8.8
2017-Sep-16 10:00N 47°60' W 122°37'5 9.8
2017-Sep-16 09:30N 48°04' W 122°39'5 9.9
2017-Sep-16 08:58N 48°09' W 122°44'510.2
2017-Sep-16 08:30N 48°11' W 122°50'510.7
2017-Sep-16 08:00N 48°11' W 122°58'610.9
2017-Sep-16 07:29N 48°12' W 123°07'613.1
2017-Sep-16 07:00N 48°11' W 123°16'510.6
2017-Sep-16 06:30N 48°10' W 123°24'5 9.1
2017-Sep-16 06:00N 48°12' W 123°29'510.0
2017-Sep-16 05:30N 48°17' W 123°29'5 9.5
2017-Sep-16 05:00N 48°22' W 123°26'4 7.2
2017-Sep-16 04:30N 48°25' W 123°23'0 0.1
2017-Sep-16 03:58N 48°25' W 123°23'0 0.0
2017-Sep-16 03:28N 48°25' W 123°23'0 0.0
2017-Sep-16 02:58N 48°25' W 123°23'0 0.0
2017-Sep-16 02:28N 48°25' W 123°23'0 0.0
2017-Sep-16 02:00N 48°25' W 123°23'0 0.0
2017-Sep-16 01:30N 48°25' W 123°23'0 0.0
2017-Sep-16 01:00N 48°25' W 123°23'0 0.0
2017-Sep-16 00:30N 48°25' W 123°23'0 0.0
2017-Sep-16 00:00N 48°25' W 123°23'0 0.0
2017-Sep-15 23:29N 48°25' W 123°23'0 0.0
2017-Sep-15 22:59N 48°25' W 123°23'0 0.0
2017-Sep-15 22:29N 48°25' W 123°23'0 0.0
2017-Sep-15 21:59N 48°25' W 123°23'0 0.0
2017-Sep-15 21:28N 48°25' W 123°23'0 0.0
2017-Sep-15 20:58N 48°25' W 123°23'1 1.8
2017-Sep-15 20:30N 48°25' W 123°24'612.1
2017-Sep-15 20:00N 48°19' W 123°25'815.6
2017-Sep-15 19:30N 48°13' W 123°33'917.6
2017-Sep-15 19:00N 48°13' W 123°46'918.0
2017-Sep-15 18:30N 48°15' W 123°60'917.8
2017-Sep-15 18:00N 48°19' W 124°12'918.1
2017-Sep-15 17:30N 48°22' W 124°24'817.0
2017-Sep-15 17:00N 48°26' W 124°35'816.3
2017-Sep-15 16:30N 48°29' W 124°47'917.2
2017-Sep-15 16:00N 48°29' W 125°00'816.8
2017-Sep-15 15:30N 48°30' W 125°13'816.6
2017-Sep-15 15:01N 48°35' W 125°23'815.7
2017-Sep-15 14:30N 48°38' W 125°34'816.6
2017-Sep-15 14:00N 48°42' W 125°45'1019.4
2017-Sep-15 13:30N 48°47' W 125°57'1019.7
2017-Sep-15 13:00N 48°53' W 126°09'1020.0
2017-Sep-15 12:30N 48°59' W 126°21'1020.5
2017-Sep-15 12:00N 49°06' W 126°33'1020.6
2017-Sep-15 11:30N 49°13' W 126°45'1020.3
2017-Sep-15 11:00N 49°19' W 126°57'1020.2
2017-Sep-15 10:30N 49°25' W 127°09'1020.8
2017-Sep-15 10:00N 49°32' W 127°22'  
Track history (hours):
 
Tides and Currents Weather Stations Pressure Air Temp Water Temp Dewpoint Dewpoint Depression Visibility Wind Speed Wind Dir Waves Ship Positions

Norwegian Jewel

Last reported at 2017-Sep-25 10:00 UTC. Time now 2017-Sep-25 10:07 UTC.
Position N 54°23' W 131°09'.

Type: Ship. MMSI: 311827000.

Date/timePositionNaut miles runAvg speedWind from/ knotsBaromVisibWave heightAir tempDewpointWater temp
2017-Sep-25 10:00N 54°23' W 131°09'918.7
2017-Sep-25 09:30N 54°14' W 131°03'1020.2
2017-Sep-25 09:00N 54°04' W 131°00'1121.3
2017-Sep-25 08:30N 53°53' W 130°58'1121.3
2017-Sep-25 08:00N 53°43' W 130°56'1121.5
2017-Sep-25 07:30N 53°32' W 130°56'1121.0
2017-Sep-25 07:00N 53°22' W 130°57'12620.5
2017-Sep-25 00:53N 51°27' W 129°30'820.6
2017-Sep-25 00:31N 51°23' W 129°20'1020.7
2017-Sep-25 00:00N 51°18' W 129°06'1020.8
2017-Sep-24 23:30N 51°12' W 128°52'1020.3
2017-Sep-24 23:01N 51°10' W 128°36'1019.8
2017-Sep-24 22:31N 51°07' W 128°21'1019.6
2017-Sep-24 22:00N 51°04' W 128°06'1019.7
2017-Sep-24 21:30N 51°01' W 127°51'714.6
2017-Sep-24 21:01N 50°56' W 127°42'1020.1
2017-Sep-24 20:30N 50°50' W 127°29'1020.4
2017-Sep-24 20:00N 50°46' W 127°14'1020.7
2017-Sep-24 19:30N 50°43' W 126°59'1019.9
2017-Sep-24 18:59N 50°37' W 126°45'3919.3
2017-Sep-24 16:56N 50°23' W 125°47'1021.4
2017-Sep-24 16:29N 50°22' W 125°32'714.8
2017-Sep-24 16:00N 50°17' W 125°24'918.2
2017-Sep-24 15:31N 50°08' W 125°21'713.9
2017-Sep-24 15:00N 50°03' W 125°14'713.5
2017-Sep-24 14:30N 49°57' W 125°08'816.6
2017-Sep-24 14:00N 49°51' W 124°59'816.2
2017-Sep-24 13:30N 49°46' W 124°50'714.9
2017-Sep-24 13:01N 49°40' W 124°42'815.0
2017-Sep-24 12:30N 49°35' W 124°34'715.0
2017-Sep-24 12:00N 49°30' W 124°25'815.7
2017-Sep-24 11:31N 49°25' W 124°16'815.4
2017-Sep-24 11:00N 49°21' W 124°05'816.0
2017-Sep-24 10:30N 49°18' W 123°54'816.5
2017-Sep-24 10:00N 49°14' W 123°43'816.9
2017-Sep-24 09:31N 49°10' W 123°32'816.7
2017-Sep-24 09:00N 49°05' W 123°22'816.3
2017-Sep-24 08:30N 48°59' W 123°13'816.3
2017-Sep-24 08:00N 48°53' W 123°04'713.5
2017-Sep-24 07:30N 48°47' W 123°01'713.9
2017-Sep-24 07:00N 48°43' W 123°10'611.4
2017-Sep-24 06:30N 48°38' W 123°14'510.4
2017-Sep-24 06:00N 48°33' W 123°12'510.2
2017-Sep-24 05:30N 48°28' W 123°10'510.2
2017-Sep-24 05:01N 48°23' W 123°13'714.0
2017-Sep-24 04:30N 48°21' W 123°23'815.5
2017-Sep-24 04:00N 48°14' W 123°26'713.2
2017-Sep-24 03:30N 48°08' W 123°21'917.2
2017-Sep-24 03:00N 48°12' W 123°09'816.4
2017-Sep-24 02:30N 48°12' W 122°57'816.0
2017-Sep-24 02:00N 48°10' W 122°45'714.3
2017-Sep-24 01:30N 48°05' W 122°38'715.3
2017-Sep-24 01:00N 47°58' W 122°34'715.0
2017-Sep-24 00:31N 47°51' W 122°28'815.8
2017-Sep-24 00:01N 47°44' W 122°26'713.4
2017-Sep-23 23:31N 47°37' W 122°24'2 4.1
2017-Sep-23 23:00N 47°37' W 122°21'0 0.0
2017-Sep-23 22:27N 47°37' W 122°21'0 0.0
2017-Sep-23 22:00N 47°37' W 122°21'0 0.0
2017-Sep-23 21:29N 47°37' W 122°21'0 0.0
2017-Sep-23 21:00N 47°37' W 122°21'0 0.0
2017-Sep-23 20:29N 47°37' W 122°21'0 0.0
2017-Sep-23 19:58N 47°37' W 122°21'406 9.7
2017-Sep-22 02:00N 51°36' W 130°46'1123.0
2017-Sep-22 01:30N 51°44' W 130°59'1121.9
2017-Sep-22 01:00N 51°52' W 131°11'1223.7
2017-Sep-22 00:31N 52°02' W 131°23'1223.1
2017-Sep-22 00:00N 52°11' W 131°35'  
2017-Sep-18 11:13N 54°41' W 131°15'1418.8
2017-Sep-18 10:27N 54°26' W 131°12'921.3
2017-Sep-18 10:00N 54°18' W 131°04'1020.7
2017-Sep-18 09:30N 54°08' W 131°01'1020.6
2017-Sep-18 09:00N 53°58' W 130°58'1020.7
2017-Sep-18 08:30N 53°47' W 130°58'1020.7
2017-Sep-18 08:01N 53°37' W 130°57'14921.0
2017-Sep-18 00:56N 51°21' W 129°18'921.9
2017-Sep-18 00:30N 51°16' W 129°05'1122.0
2017-Sep-18 00:01N 51°12' W 128°49'1122.5
2017-Sep-17 23:30N 51°09' W 128°32'1122.3
2017-Sep-17 23:00N 51°05' W 128°15'1222.0
2017-Sep-17 22:29N 51°02' W 127°57'817.3
2017-Sep-17 22:00N 50°58' W 127°45'917.8
2017-Sep-17 21:30N 50°52' W 127°35'1020.6
2017-Sep-17 21:00N 50°48' W 127°20'1020.4
2017-Sep-17 20:30N 50°44' W 127°05'1019.2
2017-Sep-17 19:59N 50°40' W 126°51'5717.9
2017-Sep-17 16:49N 50°20' W 125°27'413.9
2017-Sep-17 16:30N 50°17' W 125°24'917.4
2017-Sep-17 16:00N 50°08' W 125°21'713.8
2017-Sep-17 15:30N 50°03' W 125°14'713.3
2017-Sep-17 15:00N 49°57' W 125°08'714.0
2017-Sep-17 14:30N 49°52' W 125°01'714.2
2017-Sep-17 14:00N 49°47' W 124°53'815.0
2017-Sep-17 13:31N 49°42' W 124°45'714.7
2017-Sep-17 13:00N 49°37' W 124°37'714.5
2017-Sep-17 12:30N 49°31' W 124°30'714.1
2017-Sep-17 12:00N 49°27' W 124°22'815.2
2017-Sep-17 11:30N 49°23' W 124°11'815.4
2017-Sep-17 11:00N 49°20' W 124°01'815.6
2017-Sep-17 10:30N 49°16' W 123°50'815.7
2017-Sep-17 10:00N 49°12' W 123°40'815.8
2017-Sep-17 09:30N 49°08' W 123°30'815.1
2017-Sep-17 09:00N 49°03' W 123°20'816.5
2017-Sep-17 08:30N 48°58' W 123°10'815.9
2017-Sep-17 08:01N 48°52' W 123°02'612.9
2017-Sep-17 07:30N 48°46' W 123°03'816.1
2017-Sep-17 07:00N 48°42' W 123°14'611.7
2017-Sep-17 06:30N 48°36' W 123°13'510.3
2017-Sep-17 06:00N 48°31' W 123°11'510.3
2017-Sep-17 05:30N 48°26' W 123°10'612.1
2017-Sep-17 05:00N 48°22' W 123°17'612.3
2017-Sep-17 04:30N 48°19' W 123°25'713.2
2017-Sep-17 04:00N 48°13' W 123°25'5 9.9
2017-Sep-17 03:30N 48°10' W 123°20'713.9
2017-Sep-17 03:01N 48°12' W 123°10'713.5
2017-Sep-17 02:29N 48°12' W 122°59'713.4
2017-Sep-17 02:00N 48°11' W 122°50'714.0
2017-Sep-17 01:30N 48°08' W 122°41'714.9
2017-Sep-17 01:00N 48°01' W 122°36'815.6
2017-Sep-17 00:30N 47°54' W 122°30'815.2
2017-Sep-17 00:00N 47°47' W 122°26'715.0
2017-Sep-16 23:30N 47°40' W 122°28'510.9
2017-Sep-16 23:00N 47°37' W 122°21'0 0.5
2017-Sep-16 22:30N 47°37' W 122°21'0 0.0
2017-Sep-16 22:00N 47°37' W 122°21'0 0.0
2017-Sep-16 21:30N 47°37' W 122°21'0 0.0
2017-Sep-16 21:00N 47°37' W 122°21'0 0.0
2017-Sep-16 20:30N 47°37' W 122°21'0 0.0
2017-Sep-16 20:00N 47°37' W 122°21'0 0.0
2017-Sep-16 19:30N 47°37' W 122°21'0 0.0
2017-Sep-16 18:59N 47°37' W 122°21'0 0.0
2017-Sep-16 18:29N 47°37' W 122°21'0 0.0
2017-Sep-16 17:56N 47°37' W 122°21'0 0.0
2017-Sep-16 17:29N 47°37' W 122°21'0 0.0
2017-Sep-16 16:58N 47°37' W 122°21'0 0.0
2017-Sep-16 16:29N 47°37' W 122°21'0 0.0
2017-Sep-16 15:59N 47°37' W 122°21'0 0.0
2017-Sep-16 15:30N 47°37' W 122°21'0 0.0
2017-Sep-16 15:00N 47°37' W 122°21'0 0.0
2017-Sep-16 14:30N 47°37' W 122°21'0 0.0
2017-Sep-16 14:00N 47°37' W 122°21'0 0.0
2017-Sep-16 13:30N 47°37' W 122°21'1 1.7
2017-Sep-16 13:00N 47°36' W 122°22'510.5
2017-Sep-16 12:30N 47°39' W 122°28'5 9.9
2017-Sep-16 12:00N 47°44' W 122°27'4 8.2
2017-Sep-16 11:30N 47°48' W 122°28'4 8.7
2017-Sep-16 11:00N 47°53' W 122°29'4 8.5
2017-Sep-16 10:30N 47°56' W 122°33'4 8.8
2017-Sep-16 10:00N 47°60' W 122°37'5 9.8
2017-Sep-16 09:30N 48°04' W 122°39'5 9.9
2017-Sep-16 08:58N 48°09' W 122°44'510.2
2017-Sep-16 08:30N 48°11' W 122°50'510.7
2017-Sep-16 08:00N 48°11' W 122°58'610.9
2017-Sep-16 07:29N 48°12' W 123°07'613.1
2017-Sep-16 07:00N 48°11' W 123°16'510.6
2017-Sep-16 06:30N 48°10' W 123°24'5 9.1
2017-Sep-16 06:00N 48°12' W 123°29'510.0
2017-Sep-16 05:30N 48°17' W 123°29'5 9.5
2017-Sep-16 05:00N 48°22' W 123°26'4 7.2
2017-Sep-16 04:30N 48°25' W 123°23'0 0.1
2017-Sep-16 03:58N 48°25' W 123°23'0 0.0
2017-Sep-16 03:28N 48°25' W 123°23'0 0.0
2017-Sep-16 02:58N 48°25' W 123°23'0 0.0
2017-Sep-16 02:28N 48°25' W 123°23'0 0.0
2017-Sep-16 02:00N 48°25' W 123°23'0 0.0
2017-Sep-16 01:30N 48°25' W 123°23'0 0.0
2017-Sep-16 01:00N 48°25' W 123°23'0 0.0
2017-Sep-16 00:30N 48°25' W 123°23'0 0.0
2017-Sep-16 00:00N 48°25' W 123°23'0 0.0
2017-Sep-15 23:29N 48°25' W 123°23'0 0.0
2017-Sep-15 22:59N 48°25' W 123°23'0 0.0
2017-Sep-15 22:29N 48°25' W 123°23'0 0.0
2017-Sep-15 21:59N 48°25' W 123°23'0 0.0
2017-Sep-15 21:28N 48°25' W 123°23'0 0.0
2017-Sep-15 20:58N 48°25' W 123°23'1 1.8
2017-Sep-15 20:30N 48°25' W 123°24'612.1
2017-Sep-15 20:00N 48°19' W 123°25'815.6
2017-Sep-15 19:30N 48°13' W 123°33'917.6
2017-Sep-15 19:00N 48°13' W 123°46'918.0
2017-Sep-15 18:30N 48°15' W 123°60'917.8
2017-Sep-15 18:00N 48°19' W 124°12'918.1
2017-Sep-15 17:30N 48°22' W 124°24'817.0
2017-Sep-15 17:00N 48°26' W 124°35'816.3
2017-Sep-15 16:30N 48°29' W 124°47'917.2
2017-Sep-15 16:00N 48°29' W 125°00'816.8
2017-Sep-15 15:30N 48°30' W 125°13'816.6
2017-Sep-15 15:01N 48°35' W 125°23'815.7
2017-Sep-15 14:30N 48°38' W 125°34'816.6
2017-Sep-15 14:00N 48°42' W 125°45'1019.4
2017-Sep-15 13:30N 48°47' W 125°57'1019.7
2017-Sep-15 13:00N 48°53' W 126°09'1020.0
2017-Sep-15 12:30N 48°59' W 126°21'1020.5
2017-Sep-15 12:00N 49°06' W 126°33'1020.6
2017-Sep-15 11:30N 49°13' W 126°45'1020.3
2017-Sep-15 11:00N 49°19' W 126°57'1020.2
2017-Sep-15 10:30N 49°25' W 127°09'1020.8
2017-Sep-15 10:00N 49°32' W 127°22'  

Dump ship's entire track history